Time;durP1;ratioP1;P1;durP2;ratioP2;P2;SDS_P1;SDS_P2;PMS_P1;PMS_P2;Temp;Humidity;BMP_temperature;BMP_pressure;BME280_temperature;BME280_humidity;BME280_pressure;Samples;Min_cycle;Max_cycle;Signal;HPM_P1;HPM_P2
2024/01/21 00:02:21;;;;;;;8.33;4.40;;;1.10;99.90;;;;;;5107224;28;20479;-82
2024/01/21 00:04:50;;;;;;;6.03;4.80;;;1.10;99.90;;;;;;5105593;28;20470;-83
2024/01/21 00:07:18;;;;;;;5.80;4.37;;;1.10;99.90;;;;;;5105745;28;20972;-83
2024/01/21 00:09:47;;;;;;;5.40;4.73;;;1.10;99.90;;;;;;5106162;28;20454;-82
2024/01/21 00:12:16;;;;;;;6.73;4.33;;;1.10;99.90;;;;;;5105595;28;20482;-82
2024/01/21 00:14:44;;;;;;;6.50;4.63;;;1.10;99.90;;;;;;5105668;28;20471;-82
2024/01/21 00:17:12;;;;;;;5.30;4.80;;;1.20;99.90;;;;;;5107917;28;20922;-83
2024/01/21 00:19:40;;;;;;;6.50;4.73;;;1.30;99.90;;;;;;5106831;28;20471;-83
2024/01/21 00:22:09;;;;;;;5.60;4.63;;;1.10;99.90;;;;;;5106758;28;20560;-83
2024/01/21 00:24:37;;;;;;;4.90;4.10;;;1.10;99.90;;;;;;5107234;28;20474;-82
2024/01/21 00:27:07;;;;;;;5.27;4.77;;;1.10;99.90;;;;;;5104972;28;21017;-83
2024/01/21 00:29:36;;;;;;;6.70;5.20;;;1.10;99.90;;;;;;5105876;28;20450;-82
2024/01/21 00:32:04;;;;;;;5.93;5.10;;;1.10;99.90;;;;;;5105726;28;20992;-82
2024/01/21 00:34:32;;;;;;;5.67;4.90;;;1.10;99.90;;;;;;5104946;28;20449;-82
2024/01/21 00:37:01;;;;;;;5.37;4.60;;;1.10;99.90;;;;;;5104623;28;20477;-83
2024/01/21 00:39:30;;;;;;;5.90;5.30;;;1.10;99.90;;;;;;5104939;28;21031;-82
2024/01/21 00:41:59;;;;;;;5.80;4.77;;;1.10;99.90;;;;;;5104194;28;20482;-82
2024/01/21 00:44:37;;;;;;;5.00;4.50;;;1.10;99.90;;;;;;5103996;28;20453;-82
2024/01/21 00:47:06;;;;;;;5.13;4.57;;;1.20;99.90;;;;;;5105562;28;20454;-83
2024/01/21 00:49:34;;;;;;;5.53;4.77;;;1.10;99.90;;;;;;5114197;28;20498;-82
2024/01/21 00:52:03;;;;;;;6.20;4.93;;;1.10;99.90;;;;;;5108676;28;20481;-82
2024/01/21 00:54:32;;;;;;;6.10;4.30;;;1.10;99.90;;;;;;5108601;28;20444;-83
2024/01/21 00:57:00;;;;;;;6.97;4.53;;;1.10;99.90;;;;;;5108157;28;20492;-83
2024/01/21 00:59:29;;;;;;;4.80;4.27;;;1.10;99.90;;;;;;5106698;28;20462;-82
2024/01/21 01:01:59;;;;;;;5.07;4.27;;;1.10;99.90;;;;;;5106352;28;20473;-83
2024/01/21 01:04:28;;;;;;;6.13;5.10;;;1.10;99.90;;;;;;5104508;28;20496;-83
2024/01/21 01:06:56;;;;;;;5.23;4.73;;;1.10;99.90;;;;;;5105094;28;20874;-83
2024/01/21 01:09:24;;;;;;;5.30;4.53;;;1.20;99.90;;;;;;5104058;28;20467;-83
2024/01/21 01:11:53;;;;;;;4.53;4.13;;;1.10;99.90;;;;;;5105635;28;20467;-81
2024/01/21 01:14:21;;;;;;;4.60;3.90;;;1.10;99.90;;;;;;5103871;28;20444;-81
2024/01/21 01:16:49;;;;;;;5.83;4.40;;;1.10;99.90;;;;;;5107275;28;20467;-79
2024/01/21 01:19:19;;;;;;;5.30;4.80;;;1.10;99.90;;;;;;5104179;28;20442;-81
2024/01/21 01:21:47;;;;;;;4.97;4.30;;;1.20;99.90;;;;;;5104441;28;20467;-81
2024/01/21 01:24:16;;;;;;;5.10;4.00;;;1.10;99.90;;;;;;5103292;28;20452;-80
2024/01/21 01:26:44;;;;;;;5.70;4.47;;;1.10;99.90;;;;;;5096498;28;20453;-82
2024/01/21 01:29:13;;;;;;;5.00;3.90;;;1.10;99.90;;;;;;5096067;28;20457;-80
2024/01/21 01:31:42;;;;;;;4.60;3.63;;;1.20;99.90;;;;;;5095622;28;20516;-81
2024/01/21 01:34:12;;;;;;;5.03;4.10;;;1.10;99.90;;;;;;5095463;28;20461;-80
2024/01/21 01:36:42;;;;;;;4.70;4.23;;;1.20;99.90;;;;;;5095347;28;20983;-80
2024/01/21 01:39:11;;;;;;;5.23;4.10;;;1.10;99.90;;;;;;5095604;28;20496;-80
2024/01/21 01:41:39;;;;;;;5.03;4.40;;;1.00;99.90;;;;;;5095589;28;20549;-80
2024/01/21 01:44:08;;;;;;;5.30;4.33;;;1.00;99.90;;;;;;5095784;28;20467;-81
2024/01/21 01:46:37;;;;;;;4.87;3.80;;;1.00;99.90;;;;;;5095281;28;20508;-81
2024/01/21 01:49:05;;;;;;;4.47;4.07;;;1.00;99.90;;;;;;5095181;28;20506;-81
2024/01/21 01:51:37;;;;;;;5.57;4.37;;;1.00;99.90;;;;;;5095254;28;20495;-81
2024/01/21 01:54:07;;;;;;;5.57;4.13;;;1.00;99.90;;;;;;5095852;28;20444;-81
2024/01/21 01:56:36;;;;;;;4.80;3.97;;;1.00;99.90;;;;;;5095237;28;20463;-81
2024/01/21 01:59:09;;;;;;;5.23;4.00;;;1.00;99.90;;;;;;5096155;28;20443;-82
2024/01/21 02:01:38;;;;;;;5.60;3.90;;;1.00;99.90;;;;;;5095950;28;20470;-81
2024/01/21 02:04:08;;;;;;;4.80;3.80;;;1.00;99.90;;;;;;5094648;28;20464;-80
2024/01/21 02:06:37;;;;;;;4.17;3.77;;;1.00;99.90;;;;;;5094645;28;20944;-82
2024/01/21 02:09:08;;;;;;;4.83;4.13;;;1.30;99.90;;;;;;5094663;28;20504;-81
2024/01/21 02:11:36;;;;;;;4.20;3.63;;;1.10;99.90;;;;;;5095247;28;20474;-82
2024/01/21 02:14:05;;;;;;;4.83;3.90;;;1.10;99.90;;;;;;5094597;28;20451;-80
2024/01/21 02:16:33;;;;;;;4.37;3.90;;;1.10;99.90;;;;;;5094532;28;20610;-80
2024/01/21 02:19:05;;;;;;;4.80;4.30;;;1.10;99.90;;;;;;5095987;28;20449;-80
2024/01/21 02:21:33;;;;;;;4.90;3.90;;;1.10;99.90;;;;;;5094836;28;20509;-81
2024/01/21 02:24:03;;;;;;;5.57;4.27;;;1.10;99.90;;;;;;5094935;28;20454;-81
2024/01/21 02:26:32;;;;;;;4.20;3.63;;;1.10;99.90;;;;;;5095005;28;20451;-81
2024/01/21 02:29:00;;;;;;;5.63;3.50;;;1.10;99.90;;;;;;5095000;28;20551;-80
2024/01/21 02:31:28;;;;;;;4.20;3.80;;;1.10;99.90;;;;;;5095173;28;20469;-80
2024/01/21 02:33:56;;;;;;;5.47;4.03;;;1.10;99.90;;;;;;5094663;28;20499;-81
2024/01/21 02:36:25;;;;;;;4.20;3.80;;;1.10;99.90;;;;;;5094537;28;20841;-81
2024/01/21 02:38:53;;;;;;;5.60;5.00;;;1.10;99.90;;;;;;5094743;28;20451;-81
2024/01/21 02:41:23;;;;;;;5.47;4.07;;;1.10;99.90;;;;;;5095065;28;20532;-80
2024/01/21 02:43:51;;;;;;;4.83;4.13;;;1.10;99.90;;;;;;5096024;28;20435;-80
2024/01/21 02:46:20;;;;;;;4.30;3.10;;;1.10;99.90;;;;;;5094698;28;20510;-80
2024/01/21 02:48:48;;;;;;;3.73;3.33;;;1.10;99.90;;;;;;5095105;28;20479;-81
2024/01/21 02:51:16;;;;;;;5.50;4.40;;;1.10;99.90;;;;;;5099008;28;20475;-81
2024/01/21 02:53:45;;;;;;;5.23;3.87;;;1.10;99.90;;;;;;5100124;28;20443;-80
2024/01/21 02:56:21;;;;;;;5.43;3.87;;;1.10;99.90;;;;;;5098801;28;21003;-80
2024/01/21 02:58:51;;;;;;;5.17;4.03;;;1.20;99.90;;;;;;5098524;28;21022;-81
2024/01/21 03:01:20;;;;;;;3.97;3.40;;;1.20;99.90;;;;;;5098351;28;20473;-81
2024/01/21 03:03:49;;;;;;;4.90;4.40;;;1.20;99.90;;;;;;5106930;28;20445;-79
2024/01/21 03:06:18;;;;;;;4.93;3.90;;;1.10;99.90;;;;;;5112387;28;20970;-81
2024/01/21 03:08:46;;;;;;;5.37;4.50;;;1.20;99.90;;;;;;5100592;28;20449;-81
2024/01/21 03:11:15;;;;;;;4.47;3.97;;;1.20;99.90;;;;;;5100053;28;20541;-81
2024/01/21 03:13:44;;;;;;;5.93;3.87;;;1.20;99.90;;;;;;5099300;28;20510;-81
2024/01/21 03:16:14;;;;;;;4.60;3.60;;;1.20;99.90;;;;;;5100194;28;20928;-82
2024/01/21 03:18:42;;;;;;;4.67;3.70;;;1.20;99.90;;;;;;5099643;28;20471;-80
2024/01/21 03:21:11;;;;;;;5.30;4.20;;;1.20;99.90;;;;;;5098999;28;20867;-81
2024/01/21 03:23:39;;;;;;;6.03;4.30;;;1.20;99.90;;;;;;5098650;28;20499;-82
2024/01/21 03:26:07;;;;;;;5.37;4.13;;;1.30;99.90;;;;;;5099101;28;20446;-81
2024/01/21 03:28:36;;;;;;;5.27;4.77;;;1.30;99.90;;;;;;5100319;28;20440;-80
2024/01/21 03:31:04;;;;;;;5.27;4.77;;;1.30;99.90;;;;;;5098772;28;20539;-81
2024/01/21 03:33:34;;;;;;;5.10;4.10;;;1.30;99.90;;;;;;5099345;28;20952;-82
2024/01/21 03:36:03;;;;;;;7.23;6.10;;;1.30;99.90;;;;;;5098771;28;20446;-81
2024/01/21 03:38:31;;;;;;;6.07;5.45;;;1.30;99.90;;;;;;5097825;28;20448;-80
2024/01/21 03:41:05;;;;;;;6.07;5.30;;;1.30;99.90;;;;;;5098469;28;20224;-82
2024/01/21 03:43:34;;;;;;;7.97;6.17;;;1.30;99.90;;;;;;5099226;28;20443;-81
2024/01/21 03:46:03;;;;;;;6.23;5.50;;;1.30;99.90;;;;;;5097627;28;20889;-81
2024/01/21 03:48:31;;;;;;;8.50;6.10;;;1.30;99.90;;;;;;5098016;28;20445;-81
2024/01/21 03:51:01;;;;;;;6.23;5.20;;;1.30;99.90;;;;;;5097995;28;20459;-80
2024/01/21 03:53:29;;;;;;;6.70;5.57;;;1.30;99.90;;;;;;5097589;28;20532;-81
2024/01/21 03:55:57;;;;;;;7.50;5.30;;;1.20;99.90;;;;;;5097407;28;20454;-81
2024/01/21 03:58:25;;;;;;;7.63;6.00;;;1.30;99.90;;;;;;5097424;28;20506;-81
2024/01/21 04:00:54;;;;;;;7.57;6.00;;;1.30;99.90;;;;;;5096144;28;20465;-80
2024/01/21 04:03:22;;;;;;;8.17;6.43;;;1.30;99.90;;;;;;5096637;28;20512;-80
2024/01/21 04:05:50;;;;;;;7.63;6.43;;;1.20;99.90;;;;;;5097461;28;20443;-81
2024/01/21 04:08:20;;;;;;;7.00;6.23;;;1.30;99.90;;;;;;5097017;28;20447;-81
2024/01/21 04:10:50;;;;;;;7.50;6.13;;;1.30;99.90;;;;;;5097244;28;21021;-81
2024/01/21 04:13:18;;;;;;;8.20;7.07;;;1.30;99.90;;;;;;5097081;28;20478;-81
2024/01/21 04:15:47;;;;;;;8.20;6.10;;;1.30;99.90;;;;;;5097093;28;20453;-81
2024/01/21 04:18:15;;;;;;;10.70;7.47;;;1.20;99.90;;;;;;5096850;28;20496;-80
2024/01/21 04:20:44;;;;;;;7.33;6.50;;;1.20;99.90;;;;;;5096656;28;20449;-80
2024/01/21 04:23:12;;;;;;;7.13;5.93;;;1.30;99.90;;;;;;5096638;28;20922;-81
2024/01/21 04:25:42;;;;;;;7.40;6.10;;;1.20;99.90;;;;;;5096450;28;20446;-82
2024/01/21 04:28:10;;;;;;;7.00;6.30;;;1.30;99.90;;;;;;5098065;28;20851;-81
2024/01/21 04:30:39;;;;;;;7.43;6.40;;;1.20;99.90;;;;;;5097057;28;20444;-80
2024/01/21 04:33:07;;;;;;;6.57;5.70;;;1.20;99.90;;;;;;5096103;28;20473;-81
2024/01/21 04:35:36;;;;;;;7.40;6.40;;;1.20;99.90;;;;;;5096363;28;20446;-81
2024/01/21 04:38:04;;;;;;;7.60;6.20;;;1.20;99.90;;;;;;5096174;28;20545;-81
2024/01/21 04:40:33;;;;;;;7.10;6.00;;;1.20;99.90;;;;;;5096245;28;20461;-80
2024/01/21 04:43:02;;;;;;;6.47;5.83;;;1.40;99.90;;;;;;5095496;28;20464;-81
2024/01/21 04:45:31;;;;;;;6.50;5.57;;;1.20;99.90;;;;;;5096298;28;20508;-80
2024/01/21 04:47:59;;;;;;;5.97;5.33;;;1.30;99.90;;;;;;5096027;28;20458;-81
2024/01/21 04:50:27;;;;;;;7.47;5.60;;;1.30;99.90;;;;;;5095759;28;20479;-81
2024/01/21 04:52:55;;;;;;;6.47;5.23;;;1.30;99.90;;;;;;5097269;28;20493;-80
2024/01/21 04:55:24;;;;;;;7.77;6.00;;;1.30;99.90;;;;;;5095715;28;20503;-80
2024/01/21 04:57:52;;;;;;;7.83;5.63;;;1.30;99.90;;;;;;5095898;28;20450;-82
2024/01/21 05:00:22;;;;;;;7.23;6.10;;;1.30;99.90;;;;;;5096072;28;20473;-80
2024/01/21 05:02:50;;;;;;;7.03;5.60;;;1.30;99.90;;;;;;5095408;28;20992;-81
2024/01/21 05:05:18;;;;;;;7.43;5.60;;;1.30;99.90;;;;;;5095879;28;20811;-80
2024/01/21 05:07:47;;;;;;;6.50;5.43;;;1.30;99.90;;;;;;5096767;28;20494;-81
2024/01/21 05:10:15;;;;;;;6.30;5.00;;;1.30;99.90;;;;;;5096630;28;20450;-80
2024/01/21 05:12:43;;;;;;;6.50;5.80;;;1.30;99.90;;;;;;5095749;28;20472;-80
2024/01/21 05:15:11;;;;;;;7.47;5.70;;;1.30;99.90;;;;;;5095409;28;20455;-81
2024/01/21 05:17:41;;;;;;;6.13;5.30;;;1.30;99.90;;;;;;5095626;28;20443;-81
2024/01/21 05:20:11;;;;;;;7.90;5.83;;;1.30;99.90;;;;;;5101601;28;20477;-81
2024/01/21 05:22:39;;;;;;;5.80;4.93;;;1.30;99.90;;;;;;5098837;28;20887;-81
2024/01/21 05:25:07;;;;;;;7.17;6.43;;;1.30;99.90;;;;;;5096815;28;20453;-81
2024/01/21 05:27:36;;;;;;;7.43;5.87;;;1.30;99.90;;;;;;5097163;28;20451;-81
2024/01/21 05:30:06;;;;;;;7.17;5.50;;;1.30;99.90;;;;;;5096616;28;20448;-81
2024/01/21 05:32:34;;;;;;;6.73;4.57;;;1.40;99.90;;;;;;5096526;28;20532;-80
2024/01/21 05:35:04;;;;;;;6.57;5.03;;;1.30;99.90;;;;;;5096113;28;20466;-80
2024/01/21 05:37:32;;;;;;;6.97;4.50;;;1.40;99.90;;;;;;5096204;28;20988;-80
2024/01/21 05:40:02;;;;;;;5.60;4.60;;;1.40;99.90;;;;;;5095746;28;20476;-82
2024/01/21 05:42:32;;;;;;;7.27;4.90;;;1.30;99.90;;;;;;5097512;28;20557;-81
2024/01/21 05:45:01;;;;;;;5.37;4.50;;;1.40;99.90;;;;;;5095689;28;20458;-81
2024/01/21 05:47:29;;;;;;;6.93;4.90;;;1.40;99.90;;;;;;5097330;28;20450;-81
2024/01/21 05:49:57;;;;;;;6.10;4.70;;;1.40;99.90;;;;;;5095372;28;21014;-81
2024/01/21 05:52:27;;;;;;;5.90;4.77;;;1.40;99.90;;;;;;5095464;28;20482;-80
2024/01/21 05:54:55;;;;;;;6.53;4.97;;;1.40;99.90;;;;;;5095441;28;21013;-80
2024/01/21 05:57:24;;;;;;;5.80;5.07;;;1.40;99.90;;;;;;5095479;28;20448;-80
2024/01/21 05:59:52;;;;;;;5.90;4.80;;;1.40;99.90;;;;;;5095177;28;20470;-79
2024/01/21 06:02:20;;;;;;;6.37;5.43;;;1.40;99.90;;;;;;5096425;28;20457;-80
2024/01/21 06:04:50;;;;;;;6.53;4.80;;;1.40;99.90;;;;;;5095159;28;20479;-80
2024/01/21 06:07:18;;;;;;;5.57;4.70;;;1.40;99.90;;;;;;5095257;28;20451;-81
2024/01/21 06:09:48;;;;;;;5.40;4.20;;;1.40;99.90;;;;;;5095702;28;20503;-80
2024/01/21 06:12:16;;;;;;;5.37;4.47;;;1.40;99.90;;;;;;5097036;28;20548;-79
2024/01/21 06:14:46;;;;;;;6.30;5.13;;;1.40;99.90;;;;;;5098013;28;20439;-79
2024/01/21 06:17:14;;;;;;;7.47;6.73;;;1.40;99.90;;;;;;5096462;28;20448;-81
2024/01/21 06:19:42;;;;;;;6.83;5.70;;;1.50;99.90;;;;;;5096780;28;20463;-80
2024/01/21 06:22:10;;;;;;;6.23;5.37;;;1.50;99.90;;;;;;5096548;28;20465;-79
2024/01/21 06:24:39;;;;;;;6.63;5.40;;;1.50;99.90;;;;;;5097548;28;20451;-80
2024/01/21 06:27:08;;;;;;;7.43;5.57;;;1.50;99.90;;;;;;5100775;28;20802;-80
2024/01/21 06:29:37;;;;;;;6.30;5.27;;;1.50;99.90;;;;;;5100658;28;20455;-80
2024/01/21 06:32:06;;;;;;;6.03;5.10;;;1.50;99.90;;;;;;5100213;28;20536;-80
2024/01/21 06:34:34;;;;;;;5.23;4.70;;;1.50;99.90;;;;;;5100401;28;20450;-80
2024/01/21 06:37:02;;;;;;;7.23;5.40;;;1.50;99.90;;;;;;5100528;28;20474;-81
2024/01/21 06:39:31;;;;;;;5.00;4.43;;;1.50;99.90;;;;;;5100552;28;20469;-81
2024/01/21 06:41:59;;;;;;;5.73;5.00;;;1.50;99.90;;;;;;5100589;28;20485;-80
2024/01/21 06:44:29;;;;;;;4.97;4.30;;;1.50;99.90;;;;;;5100083;28;20453;-81
2024/01/21 06:46:57;;;;;;;8.07;6.40;;;1.50;99.90;;;;;;5100423;28;20464;-79
2024/01/21 06:49:25;;;;;;;9.17;7.23;;;1.50;99.90;;;;;;5101684;28;20447;-80
2024/01/21 06:51:54;;;;;;;7.30;5.40;;;1.50;99.90;;;;;;5100391;28;20464;-80
2024/01/21 06:54:23;;;;;;;6.70;5.37;;;1.60;99.90;;;;;;5100174;28;20503;-81
2024/01/21 06:56:51;;;;;;;5.80;4.70;;;1.60;99.90;;;;;;5100281;28;20451;-81
2024/01/21 06:59:19;;;;;;;5.13;4.17;;;1.60;99.90;;;;;;5100108;28;20503;-81
2024/01/21 07:01:50;;;;;;;5.20;4.20;;;1.60;99.90;;;;;;5099935;28;20527;-81
2024/01/21 07:04:19;;;;;;;4.83;4.03;;;1.60;99.90;;;;;;5099798;28;20453;-80
2024/01/21 07:06:47;;;;;;;4.73;3.90;;;1.60;99.90;;;;;;5100063;28;20439;-80
2024/01/21 07:09:16;;;;;;;5.07;4.23;;;1.60;99.90;;;;;;5099901;28;20473;-81
2024/01/21 07:11:44;;;;;;;4.73;4.07;;;1.60;99.90;;;;;;5099939;28;20467;-81
2024/01/21 07:14:12;;;;;;;4.70;4.00;;;1.70;99.90;;;;;;5099991;28;20448;-81
2024/01/21 07:16:40;;;;;;;6.00;4.20;;;1.80;99.90;;;;;;5099643;28;20470;-79
2024/01/21 07:19:11;;;;;;;6.67;5.93;;;1.70;99.90;;;;;;5100732;28;20526;-80
2024/01/21 07:21:40;;;;;;;6.77;5.50;;;1.80;99.90;;;;;;5099664;28;20567;-81
2024/01/21 07:24:08;;;;;;;4.77;3.83;;;1.80;99.90;;;;;;5099109;28;20454;-81
2024/01/21 07:26:36;;;;;;;4.63;4.03;;;1.80;99.90;;;;;;5099077;28;20865;-79
2024/01/21 07:29:05;;;;;;;5.40;4.77;;;1.90;99.90;;;;;;5099255;28;20822;-81
2024/01/21 07:31:33;;;;;;;5.27;4.40;;;1.90;99.90;;;;;;5099481;28;20555;-81
2024/01/21 07:34:01;;;;;;;5.20;4.50;;;1.90;99.90;;;;;;5099222;28;20948;-82
2024/01/21 07:36:31;;;;;;;5.00;4.40;;;1.90;99.90;;;;;;5112389;28;20464;-80
2024/01/21 07:39:00;;;;;;;7.37;6.10;;;1.90;99.90;;;;;;5103696;28;20448;-82
2024/01/21 07:41:28;;;;;;;4.90;3.93;;;2.00;99.90;;;;;;5099231;28;20507;-79
2024/01/21 07:43:57;;;;;;;6.50;5.37;;;2.00;99.90;;;;;;5098454;28;20448;-79
2024/01/21 07:46:25;;;;;;;6.90;5.10;;;2.00;99.90;;;;;;5099435;28;20471;-82
2024/01/21 07:48:53;;;;;;;4.40;3.80;;;2.00;99.90;;;;;;5104997;28;20451;-78
2024/01/21 07:51:22;;;;;;;4.17;3.77;;;2.00;99.90;;;;;;5111447;28;20469;-80
2024/01/21 07:53:52;;;;;;;5.23;3.83;;;2.10;99.90;;;;;;5115080;28;20464;-80
2024/01/21 07:56:20;;;;;;;4.70;3.90;;;2.10;99.90;;;;;;5101046;28;20444;-79
2024/01/21 07:58:48;;;;;;;6.13;4.30;;;2.20;99.90;;;;;;5097280;28;20440;-78
2024/01/21 08:01:20;;;;;;;5.00;4.47;;;2.20;99.90;;;;;;5096762;28;20467;-81
2024/01/21 08:03:49;;;;;;;4.67;3.80;;;2.20;99.90;;;;;;5097761;28;20428;-81
2024/01/21 08:06:20;;;;;;;4.77;4.07;;;2.20;99.90;;;;;;5096918;28;20480;-80
2024/01/21 08:08:48;;;;;;;5.13;3.77;;;2.30;99.90;;;;;;5097575;28;20485;-81
2024/01/21 08:11:18;;;;;;;4.73;3.70;;;2.30;99.90;;;;;;5096609;28;20865;-81
2024/01/21 08:13:47;;;;;;;4.23;3.83;;;2.30;99.90;;;;;;5098938;28;20419;-81
2024/01/21 08:16:15;;;;;;;11.03;8.00;;;2.30;99.90;;;;;;5098582;28;20467;-81
2024/01/21 08:18:44;;;;;;;6.70;5.47;;;2.40;99.80;;;;;;5097952;28;20468;-82
2024/01/21 08:21:12;;;;;;;4.07;3.27;;;2.30;99.80;;;;;;5097498;28;21074;-82
2024/01/21 08:23:41;;;;;;;4.60;3.73;;;2.40;99.80;;;;;;5096245;28;20466;-81
2024/01/21 08:26:10;;;;;;;6.70;3.67;;;2.40;99.70;;;;;;5096486;28;20462;-81
2024/01/21 08:28:39;;;;;;;5.43;3.60;;;2.40;99.70;;;;;;5096182;28;20535;-81
2024/01/21 08:31:08;;;;;;;4.93;3.90;;;2.40;99.60;;;;;;5095602;28;20440;-82
2024/01/21 08:33:37;;;;;;;4.70;3.57;;;2.40;99.60;;;;;;5096294;28;20451;-81
2024/01/21 08:36:07;;;;;;;5.30;3.63;;;2.40;99.60;;;;;;5096700;28;20563;-80
2024/01/21 08:38:36;;;;;;;4.50;3.43;;;2.50;99.70;;;;;;5096492;28;20543;-81
2024/01/21 08:41:04;;;;;;;3.87;3.50;;;2.50;99.70;;;;;;5095804;28;20475;-81
2024/01/21 08:43:35;;;;;;;3.47;3.00;;;2.50;99.60;;;;;;5096581;28;20462;-83
2024/01/21 08:46:05;;;;;;;4.20;3.70;;;2.50;99.60;;;;;;5095963;28;20494;-79
2024/01/21 08:48:33;;;;;;;4.60;3.40;;;2.60;99.50;;;;;;5095905;28;20551;-83
2024/01/21 08:51:02;;;;;;;4.80;4.20;;;2.60;99.50;;;;;;5096168;28;20451;-80
2024/01/21 08:53:30;;;;;;;5.37;4.00;;;2.60;99.50;;;;;;5096394;28;20479;-80
2024/01/21 08:55:58;;;;;;;4.37;3.03;;;2.60;99.50;;;;;;5095869;28;20457;-80
2024/01/21 08:58:26;;;;;;;4.30;3.53;;;2.70;99.50;;;;;;5095995;28;20452;-80
2024/01/21 09:00:55;;;;;;;3.90;3.47;;;2.70;99.40;;;;;;5097127;28;20480;-79
2024/01/21 09:03:25;;;;;;;5.60;4.00;;;2.70;99.40;;;;;;5096011;28;20455;-81
2024/01/21 09:05:53;;;;;;;4.03;3.40;;;2.80;99.20;;;;;;5097809;28;20451;-80
2024/01/21 09:08:22;;;;;;;4.23;3.30;;;2.80;99.10;;;;;;5096845;28;20459;-82
2024/01/21 09:10:51;;;;;;;5.00;3.60;;;2.80;99.10;;;;;;5099963;28;20444;-81
2024/01/21 09:13:19;;;;;;;4.03;2.90;;;2.80;99.00;;;;;;5100986;28;20490;-80
2024/01/21 09:15:47;;;;;;;4.47;3.57;;;2.90;98.90;;;;;;5102574;28;20462;-80
2024/01/21 09:18:16;;;;;;;5.10;3.77;;;3.00;99.00;;;;;;5105780;28;20490;-81
2024/01/21 09:20:45;;;;;;;4.30;3.07;;;3.00;99.00;;;;;;5105364;28;20468;-79
2024/01/21 09:23:14;;;;;;;5.40;3.40;;;3.10;98.90;;;;;;5105645;28;20468;-82
2024/01/21 09:25:42;;;;;;;3.90;3.20;;;3.10;98.90;;;;;;5105198;28;20455;-81
2024/01/21 09:28:11;;;;;;;3.20;2.50;;;3.10;98.80;;;;;;5104131;28;20494;-81
2024/01/21 09:30:41;;;;;;;3.83;2.87;;;3.20;98.90;;;;;;5104397;28;20461;-80
2024/01/21 09:33:09;;;;;;;4.33;3.80;;;3.20;98.70;;;;;;5104486;28;20468;-82
2024/01/21 09:35:39;;;;;;;3.63;3.07;;;3.20;98.70;;;;;;5104539;28;20510;-81
2024/01/21 09:38:10;;;;;;;4.70;3.60;;;3.30;98.70;;;;;;5104675;28;20447;-81
2024/01/21 09:40:38;;;;;;;4.50;2.87;;;3.40;98.70;;;;;;5106448;28;20576;-81
2024/01/21 09:43:07;;;;;;;3.43;3.07;;;3.40;98.70;;;;;;5101216;28;20988;-81
2024/01/21 09:45:38;;;;;;;4.10;3.50;;;3.40;98.70;;;;;;5099365;28;20444;-78
2024/01/21 09:48:08;;;;;;;3.57;3.13;;;3.40;98.60;;;;;;5101791;28;20482;-81
2024/01/21 09:50:39;;;;;;;3.47;3.00;;;3.50;98.60;;;;;;5102539;28;20444;-82
2024/01/21 09:53:09;;;;;;;3.53;3.20;;;3.60;98.50;;;;;;5102100;28;20468;-81
2024/01/21 09:55:37;;;;;;;5.43;4.90;;;3.60;98.60;;;;;;5103808;28;20857;-80
2024/01/21 09:58:08;;;;;;;4.37;3.40;;;3.60;98.50;;;;;;5100851;28;20452;-79
2024/01/21 10:00:36;;;;;;;5.30;3.67;;;3.60;98.40;;;;;;5105594;28;20472;-80
2024/01/21 10:03:05;;;;;;;4.47;3.63;;;3.60;98.30;;;;;;5106860;28;20464;-80
2024/01/21 10:05:33;;;;;;;4.23;3.40;;;3.70;98.40;;;;;;5105736;28;20455;-79
2024/01/21 10:08:02;;;;;;;3.40;3.07;;;3.70;98.40;;;;;;5106318;28;20452;-80
2024/01/21 10:10:31;;;;;;;4.37;3.00;;;3.70;98.50;;;;;;5106155;28;20877;-80
2024/01/21 10:12:59;;;;;;;4.70;3.53;;;3.80;98.40;;;;;;5104893;28;20517;-80
2024/01/21 10:15:30;;;;;;;4.10;3.53;;;3.80;98.40;;;;;;5105677;28;20456;-80
2024/01/21 10:17:58;;;;;;;4.93;4.13;;;3.90;98.40;;;;;;5107353;28;20917;-82
2024/01/21 10:20:27;;;;;;;4.60;3.90;;;4.00;98.40;;;;;;5106648;28;20435;-81
2024/01/21 10:23:09;;;;;;;4.40;4.00;;;4.00;98.40;;;;;;5104144;28;20472;-79
2024/01/21 10:25:43;;;;;;;5.17;3.70;;;4.10;98.30;;;;;;5104319;28;20456;-80
2024/01/21 10:28:12;;;;;;;4.30;3.90;;;4.10;98.20;;;;;;5103321;28;20600;-81
2024/01/21 10:30:42;;;;;;;4.67;4.27;;;4.20;98.30;;;;;;5104220;28;20444;-80
2024/01/21 10:33:10;;;;;;;4.47;3.90;;;4.20;98.30;;;;;;5105906;28;20502;-80
2024/01/21 10:35:39;;;;;;;4.83;4.33;;;4.30;98.30;;;;;;5101973;28;20816;-79
2024/01/21 10:38:11;;;;;;;4.77;4.30;;;4.30;98.50;;;;;;5100978;28;20891;-78
2024/01/21 10:40:44;;;;;;;5.20;4.20;;;4.30;98.60;;;;;;5103019;28;20870;-80
2024/01/21 10:43:14;;;;;;;5.77;4.97;;;4.30;98.70;;;;;;5100718;28;20460;-82
2024/01/21 10:45:46;;;;;;;5.53;4.93;;;4.40;98.70;;;;;;5100038;28;20990;-81
2024/01/21 10:48:14;;;;;;;5.10;4.60;;;4.40;98.70;;;;;;5099942;28;20455;-80
2024/01/21 10:50:43;;;;;;;5.83;5.23;;;4.40;98.80;;;;;;5100013;28;20957;-79
2024/01/21 10:53:12;;;;;;;8.37;7.57;;;4.40;98.80;;;;;;5099598;28;20456;-80
2024/01/21 10:55:42;;;;;;;7.93;7.07;;;4.50;98.80;;;;;;5099513;28;20441;-81
2024/01/21 10:58:11;;;;;;;7.70;5.27;;;4.50;98.80;;;;;;5098988;28;20925;-81
2024/01/21 11:00:40;;;;;;;6.30;5.27;;;4.60;98.80;;;;;;5099350;28;20538;-80
2024/01/21 11:03:25;;;;;;;6.10;4.93;;;4.60;98.70;;;;;;5101063;28;20534;-78
2024/01/21 11:05:55;;;;;;;5.77;5.03;;;4.60;98.80;;;;;;5098457;28;20448;-78
2024/01/21 11:08:24;;;;;;;5.40;4.90;;;4.70;98.80;;;;;;5099118;28;20474;-79
2024/01/21 11:11:02;;;;;;;5.33;4.83;;;4.70;98.70;;;;;;5098470;28;20487;-81
2024/01/21 11:13:39;;;;;;;5.90;5.40;;;4.70;98.70;;;;;;5098342;28;20440;-80
2024/01/21 11:16:07;;;;;;;6.57;5.93;;;4.80;98.80;;;;;;5101248;28;20435;-81
2024/01/21 11:18:36;;;;;;;6.00;5.37;;;4.80;98.80;;;;;;5099450;28;20809;-80
2024/01/21 11:21:04;;;;;;;5.63;5.10;;;4.80;98.80;;;;;;5101093;28;20453;-79
2024/01/21 11:23:34;;;;;;;6.30;5.70;;;4.80;98.80;;;;;;5101435;28;20511;-80
2024/01/21 11:26:05;;;;;;;6.00;5.50;;;4.80;98.90;;;;;;5110623;28;20455;-79
2024/01/21 11:28:33;;;;;;;6.50;5.90;;;4.80;98.90;;;;;;5101425;28;20452;-77
2024/01/21 11:31:03;;;;;;;5.87;5.27;;;4.80;99.00;;;;;;5100750;28;20478;-80
2024/01/21 11:33:31;;;;;;;7.30;6.00;;;4.80;99.10;;;;;;5099420;28;20459;-79
2024/01/21 11:36:01;;;;;;;6.73;5.90;;;4.80;99.10;;;;;;5100277;28;20971;-80
2024/01/21 11:38:29;;;;;;;7.23;6.53;;;4.80;99.20;;;;;;5099684;28;20456;-80
2024/01/21 11:41:05;;;;;;;7.00;6.23;;;4.80;99.30;;;;;;5100082;28;20445;-81
2024/01/21 11:43:33;;;;;;;6.90;6.27;;;4.80;99.30;;;;;;5100237;28;20478;-80
2024/01/21 11:46:03;;;;;;;6.23;5.63;;;4.80;99.30;;;;;;5097868;28;20571;-80
2024/01/21 11:48:32;;;;;;;7.27;6.40;;;4.90;99.40;;;;;;5099119;28;20514;-80
2024/01/21 11:51:02;;;;;;;6.90;6.20;;;4.80;99.40;;;;;;5098136;28;20441;-78
2024/01/21 11:53:31;;;;;;;7.20;6.50;;;4.90;99.60;;;;;;5097912;28;20441;-79
2024/01/21 11:55:59;;;;;;;6.10;5.57;;;4.90;99.60;;;;;;5097424;28;20470;-77
2024/01/21 11:58:29;;;;;;;7.53;6.30;;;4.90;99.70;;;;;;5097498;28;20933;-80
2024/01/21 12:00:57;;;;;;;6.33;5.73;;;4.90;99.70;;;;;;5098251;28;20467;-80
2024/01/21 12:03:25;;;;;;;7.60;6.90;;;4.90;99.80;;;;;;5097803;28;20460;-78
2024/01/21 12:05:54;;;;;;;7.00;6.30;;;4.90;99.90;;;;;;5098439;28;20453;-81
2024/01/21 12:08:22;;;;;;;7.00;6.40;;;5.00;99.90;;;;;;5099472;28;20831;-80
2024/01/21 12:10:51;;;;;;;6.30;5.70;;;5.00;99.90;;;;;;5097642;28;20455;-80
2024/01/21 12:13:21;;;;;;;7.43;6.73;;;5.00;99.90;;;;;;5098765;28;20461;-81
2024/01/21 12:15:51;;;;;;;7.53;6.73;;;5.00;99.90;;;;;;5098269;28;20448;-80
2024/01/21 12:18:20;;;;;;;7.80;6.33;;;5.10;99.90;;;;;;5099500;28;20424;-80
2024/01/21 12:20:48;;;;;;;7.63;6.83;;;5.10;99.90;;;;;;5097640;28;20881;-80
2024/01/21 12:23:23;;;;;;;7.80;7.10;;;5.10;99.90;;;;;;5098535;28;20873;-80
2024/01/21 12:25:51;;;;;;;6.83;6.13;;;5.10;99.90;;;;;;5098571;28;20948;-80
2024/01/21 12:28:21;;;;;;;6.87;6.17;;;5.10;99.90;;;;;;5097600;28;20444;-79
2024/01/21 12:30:51;;;;;;;9.23;7.03;;;5.10;99.90;;;;;;5097468;28;20432;-79
2024/01/21 12:33:20;;;;;;;8.27;7.07;;;5.10;99.90;;;;;;5097568;28;20456;-80
2024/01/21 12:35:49;;;;;;;7.20;6.60;;;5.10;99.90;;;;;;5097203;28;20567;-80
2024/01/21 12:38:18;;;;;;;7.97;7.27;;;5.10;99.90;;;;;;5097889;28;20964;-80
2024/01/21 12:40:46;;;;;;;7.10;6.40;;;5.10;99.90;;;;;;5097258;28;21010;-80
2024/01/21 12:43:16;;;;;;;7.73;7.00;;;5.10;99.90;;;;;;5098714;28;20469;-79
2024/01/21 12:45:44;;;;;;;8.20;7.30;;;5.10;99.90;;;;;;5097181;28;20515;-80
2024/01/21 12:48:14;;;;;;;7.67;6.87;;;5.10;99.90;;;;;;5097829;28;20925;-80
2024/01/21 12:50:45;;;;;;;8.03;7.27;;;5.10;99.90;;;;;;5098089;28;20444;-78
2024/01/21 12:53:13;;;;;;;8.60;7.70;;;5.10;99.90;;;;;;5097298;28;20466;-80
2024/01/21 12:55:41;;;;;;;6.80;6.20;;;5.10;99.90;;;;;;5097382;28;20440;-81
2024/01/21 12:58:12;;;;;;;8.57;7.77;;;5.10;99.90;;;;;;5098146;28;20514;-79
2024/01/21 13:00:40;;;;;;;7.73;6.83;;;5.10;99.90;;;;;;5099361;28;20440;-82
2024/01/21 13:03:09;;;;;;;9.20;7.63;;;5.10;99.90;;;;;;5097920;28;20472;-80
2024/01/21 13:05:38;;;;;;;11.03;7.57;;;5.10;99.90;;;;;;5097115;28;20452;-79
2024/01/21 13:08:08;;;;;;;7.93;7.20;;;5.10;99.90;;;;;;5098103;28;20458;-82